Mesa.AZweather.com - Mesa, AZ
   Red Mountain Frwy and University Dr., El 1518 ft.
      --- Wednesday  Sep. 11, 2019 ---
 
 High Temperature ..  96F at 14:30
 Low Temperature ...  78F at 06:52
 
 High Humidity .....  63% at 05:08
 Low Humidity ......  26% at 15:04
 
 Rainfall Total ....  0.00 in.
 
 High Wind Speed ... ---
                     
 
 High Barometer ....  30 at 08:30
 Low Barometer .....  29.87 at 00:01
 
Dew Point    High .... 67   Low ..... 53
 
 
 Time   Temp  Humi  Rain     Baro  DewPt  Wind
00:00,  84F, 52%, 0.00 in, 29.88, 65F, ---
00:30,  83F, 53%, 0.00 in, 29.88, 64F, ---
01:00,  83F, 53%, 0.00 in, 29.89, 64F, ---
01:30,  83F, 53%, 0.00 in, 29.90, 64F, ---
02:00,  82F, 53%, 0.00 in, 29.91, 64F, ---
02:30,  82F, 55%, 0.00 in, 29.91, 65F, ---
03:00,  81F, 57%, 0.00 in, 29.91, 64F, ---
03:30,  81F, 59%, 0.00 in, 29.92, 65F, ---
04:00,  81F, 61%, 0.00 in, 29.92, 66F, ---
04:30,  81F, 61%, 0.00 in, 29.92, 66F, ---
05:00,  80F, 62%, 0.00 in, 29.94, 66F, ---
05:30,  80F, 53%, 0.00 in, 29.94, 62F, ---
06:00,  79F, 46%, 0.00 in, 29.95, 56F, ---
06:30,  79F, 46%, 0.00 in, 29.95, 56F, ---
07:00,  78F, 48%, 0.00 in, 29.97, 57F, ---
07:30,  79F, 44%, 0.00 in, 29.98, 55F, ---
08:00,  80F, 46%, 0.00 in, 29.99, 58F, ---
08:30,  81F, 50%, 0.00 in, 29.99, 60F, ---
09:00,  82F, 51%, 0.00 in, 30.00, 62F, ---
09:30,  84F, 52%, 0.00 in, 30.00, 65F, ---
10:00,  87F, 49%, 0.00 in, 30.00, 66F, ---
10:30,  86F, 49%, 0.00 in, 29.99, 65F, ---
11:00,  88F, 44%, 0.00 in, 29.98, 63F, ---
11:30,  90F, 41%, 0.00 in, 29.98, 63F, ---
12:00,  91F, 39%, 0.00 in, 29.98, 63F, ---
12:30,  92F, 37%, 0.00 in, 29.97, 61F, ---
13:00,  92F, 35%, 0.00 in, 29.96, 60F, ---
13:30,  93F, 32%, 0.00 in, 29.94, 59F, ---
14:00,  94F, 29%, 0.00 in, 29.93, 56F, ---
14:30,  95F, 29%, 0.00 in, 29.91, 58F, ---
15:00,  95F, 29%, 0.00 in, 29.91, 58F, ---
15:30,  96F, 28%, 0.00 in, 29.90, 58F, ---
16:00,  96F, 29%, 0.00 in, 29.88, 59F, ---
16:30,  95F, 29%, 0.00 in, 29.88, 58F, ---
17:00,  95F, 30%, 0.00 in, 29.88, 59F, ---
17:30,  94F, 30%, 0.00 in, 29.88, 57F, ---
18:00,  93F, 31%, 0.00 in, 29.87, 58F, ---
18:30,  91F, 32%, 0.00 in, 29.88, 57F, ---
19:00,  89F, 33%, 0.00 in, 29.89, 57F, ---
19:30,  88F, 35%, 0.00 in, 29.89, 57F, ---
20:00,  87F, 35%, 0.00 in, 29.90, 57F, ---
20:30,  86F, 36%, 0.00 in, 29.91, 56F, ---
21:00,  85F, 36%, 0.00 in, 29.92, 54F, ---
21:30,  85F, 36%, 0.00 in, 29.92, 54F, ---
22:00,  84F, 36%, 0.00 in, 29.93, 54F, ---
22:30,  83F, 37%, 0.00 in, 29.94, 54F, ---
23:00,  81F, 39%, 0.00 in, 29.94, 53F, ---
23:30,  80F, 40%, 0.00 in, 29.95, 54F, ---
23:59,  80F, 40%, 0.00 in, 29.96, 54F, ---